Time;durP1;ratioP1;P1;durP2;ratioP2;P2;SDS_P1;SDS_P2;PMS_P1;PMS_P2;Temp;Humidity;BMP_temperature;BMP_pressure;BME280_temperature;BME280_humidity;BME280_pressure;Samples;Min_cycle;Max_cycle;Signal;HPM_P1;HPM_P2
2021/09/25 00:01:48;;;;;;;6.32;0.63;;;;;;;;;;5032805;28;20095;-57
2021/09/25 00:04:14;;;;;;;1.50;0.60;;;;;;;;;;5033735;28;20045;-56
2021/09/25 00:06:40;;;;;;;3.95;0.80;;;;;;;;;;5035069;28;20043;-56
2021/09/25 00:09:06;;;;;;;1.63;0.40;;;;;;;;;;5033392;28;20111;-57
2021/09/25 00:11:31;;;;;;;2.53;0.60;;;;;;;;;;5032183;28;20041;-57
2021/09/25 00:13:58;;;;;;;5.32;0.88;;;;;;;;;;5032463;28;20107;-56
2021/09/25 00:16:26;;;;;;;9.18;0.77;;;;;;;;;;5031177;28;20440;-56
2021/09/25 00:18:53;;;;;;;4.07;1.08;;;;;;;;;;5032875;28;20044;-56
2021/09/25 00:21:19;;;;;;;3.13;1.05;;;;;;;;;;5030833;28;20467;-56
2021/09/25 00:23:44;;;;;;;3.95;1.00;;;;;;;;;;5031289;28;20036;-57
2021/09/25 00:26:10;;;;;;;4.55;1.15;;;;;;;;;;5032791;28;20135;-56
2021/09/25 00:28:36;;;;;;;4.88;1.05;;;;;;;;;;5033293;28;20043;-56
2021/09/25 00:31:02;;;;;;;14.32;1.40;;;;;;;;;;5032115;28;20127;-54
2021/09/25 00:33:28;;;;;;;5.00;1.00;;;;;;;;;;5031814;28;20048;-57
2021/09/25 00:35:54;;;;;;;4.13;0.90;;;;;;;;;;5032409;28;20060;-56
2021/09/25 00:38:19;;;;;;;10.95;1.05;;;;;;;;;;5031481;28;20053;-56
2021/09/25 00:40:45;;;;;;;11.57;1.38;;;;;;;;;;5031622;28;20052;-56
2021/09/25 00:43:11;;;;;;;3.88;0.90;;;;;;;;;;5045535;28;20055;-56
2021/09/25 00:45:37;;;;;;;7.05;1.00;;;;;;;;;;5048230;28;20037;-56
2021/09/25 00:48:03;;;;;;;4.10;0.82;;;;;;;;;;5048539;28;20097;-55
2021/09/25 00:50:29;;;;;;;3.97;0.90;;;;;;;;;;5045913;28;20055;-55
2021/09/25 00:52:54;;;;;;;5.82;1.30;;;;;;;;;;5047760;28;20046;-55
2021/09/25 00:55:21;;;;;;;6.05;1.48;;;;;;;;;;5046830;28;20549;-56
2021/09/25 00:57:47;;;;;;;11.95;1.60;;;;;;;;;;5048323;28;20099;-55
2021/09/25 01:00:13;;;;;;;2.85;0.90;;;;;;;;;;5047564;28;21930;-57
2021/09/25 01:02:39;;;;;;;6.05;0.93;;;;;;;;;;5047456;28;20044;-56
2021/09/25 01:05:05;;;;;;;8.18;1.20;;;;;;;;;;5047971;28;20037;-56
2021/09/25 01:07:31;;;;;;;10.52;1.63;;;;;;;;;;5046860;28;20521;-56
2021/09/25 01:09:57;;;;;;;8.07;1.08;;;;;;;;;;5048018;28;20089;-55
2021/09/25 01:12:23;;;;;;;6.00;1.00;;;;;;;;;;5047475;28;20194;-56
2021/09/25 01:14:48;;;;;;;7.75;1.17;;;;;;;;;;5047376;28;20036;-56
2021/09/25 01:17:14;;;;;;;10.07;1.38;;;;;;;;;;5031305;28;20040;-56
2021/09/25 01:19:41;;;;;;;6.85;1.30;;;;;;;;;;5048638;28;20087;-55
2021/09/25 01:22:07;;;;;;;7.43;0.88;;;;;;;;;;5048523;28;20033;-56
2021/09/25 01:24:34;;;;;;;3.45;0.98;;;;;;;;;;5028428;28;20109;-56
2021/09/25 01:27:00;;;;;;;3.47;0.95;;;;;;;;;;5048211;28;20079;-56
2021/09/25 01:29:26;;;;;;;5.00;0.93;;;;;;;;;;5047722;28;20057;-55
2021/09/25 01:31:53;;;;;;;4.05;1.15;;;;;;;;;;5048278;28;20045;-54
2021/09/25 01:34:19;;;;;;;3.78;1.00;;;;;;;;;;5047881;28;20044;-56
2021/09/25 01:36:44;;;;;;;10.50;1.50;;;;;;;;;;5028243;28;20118;-56
2021/09/25 01:39:10;;;;;;;5.13;1.08;;;;;;;;;;5049121;28;20040;-56
2021/09/25 01:41:36;;;;;;;9.82;1.42;;;;;;;;;;5047423;28;20071;-55
2021/09/25 01:44:02;;;;;;;6.55;1.20;;;;;;;;;;5046090;28;20037;-56
2021/09/25 01:46:28;;;;;;;8.23;1.20;;;;;;;;;;5047459;28;20037;-56
2021/09/25 01:48:54;;;;;;;4.97;1.15;;;;;;;;;;5048037;28;20449;-55
2021/09/25 01:51:19;;;;;;;7.57;1.52;;;;;;;;;;5047143;28;20457;-56
2021/09/25 01:53:45;;;;;;;4.80;1.20;;;;;;;;;;5048580;28;20072;-53
2021/09/25 01:56:13;;;;;;;7.53;1.60;;;;;;;;;;5046506;28;20132;-55
2021/09/25 01:58:39;;;;;;;5.85;1.60;;;;;;;;;;5046997;28;20033;-54
2021/09/25 02:01:06;;;;;;;6.18;1.73;;;;;;;;;;5048037;28;21058;-56
2021/09/25 02:03:35;;;;;;;7.18;1.25;;;;;;;;;;5046125;28;20045;-56
2021/09/25 02:06:05;;;;;;;5.75;1.60;;;;;;;;;;5046200;28;20043;-55
2021/09/25 02:08:31;;;;;;;7.50;2.33;;;;;;;;;;5046106;28;20413;-55
2021/09/25 02:10:57;;;;;;;9.45;1.90;;;;;;;;;;5047041;28;20148;-56
2021/09/25 02:13:42;;;;;;;13.48;2.25;;;;;;;;;;4987609;28;20049;-56
2021/09/25 02:16:08;;;;;;;8.40;2.00;;;;;;;;;;5003880;28;20050;-56
2021/09/25 02:18:35;;;;;;;4.97;1.38;;;;;;;;;;5004002;28;20072;-55
2021/09/25 02:21:01;;;;;;;6.00;1.83;;;;;;;;;;5005140;28;20092;-56
2021/09/25 02:23:27;;;;;;;8.20;2.15;;;;;;;;;;5007313;28;20030;-56
2021/09/25 02:25:52;;;;;;;6.70;1.80;;;;;;;;;;5010348;28;20045;-56
2021/09/25 02:28:18;;;;;;;6.45;2.05;;;;;;;;;;5008327;28;20045;-56
2021/09/25 02:30:45;;;;;;;5.60;2.17;;;;;;;;;;5009919;28;20092;-61
2021/09/25 02:33:11;;;;;;;10.55;1.90;;;;;;;;;;5006547;28;20049;-55
2021/09/25 02:35:37;;;;;;;8.18;1.95;;;;;;;;;;5007687;28;20197;-56
2021/09/25 02:38:04;;;;;;;7.45;1.85;;;;;;;;;;5012199;28;20120;-56
2021/09/25 02:40:29;;;;;;;8.15;2.40;;;;;;;;;;5010419;28;20142;-56
2021/09/25 02:42:55;;;;;;;16.75;2.80;;;;;;;;;;5010761;28;20057;-56
2021/09/25 02:45:21;;;;;;;12.38;2.78;;;;;;;;;;5007984;28;20041;-56
2021/09/25 02:47:47;;;;;;;10.48;2.45;;;;;;;;;;5007627;28;20050;-55
2021/09/25 02:50:14;;;;;;;18.50;3.10;;;;;;;;;;5011917;28;20129;-56
2021/09/25 02:52:40;;;;;;;9.68;2.80;;;;;;;;;;5049811;28;20037;-56
2021/09/25 02:55:07;;;;;;;7.60;2.50;;;;;;;;;;5051171;28;20891;-54
2021/09/25 02:57:33;;;;;;;11.75;2.92;;;;;;;;;;5029738;28;20675;-55
2021/09/25 02:59:59;;;;;;;10.68;4.75;;;;;;;;;;5050096;28;20048;-57
2021/09/25 03:02:24;;;;;;;12.02;2.72;;;;;;;;;;5049254;28;20033;-56
2021/09/25 03:04:50;;;;;;;11.82;3.28;;;;;;;;;;5049473;28;20051;-56
2021/09/25 03:07:16;;;;;;;12.90;3.33;;;;;;;;;;5050243;28;20565;-56
2021/09/25 03:09:42;;;;;;;15.45;3.33;;;;;;;;;;5048927;28;20049;-56
2021/09/25 03:12:08;;;;;;;9.32;2.80;;;;;;;;;;5050879;28;20119;-56
2021/09/25 03:14:34;;;;;;;10.68;3.08;;;;;;;;;;5050500;28;20063;-57
2021/09/25 03:17:00;;;;;;;10.63;2.88;;;;;;;;;;5051291;28;20040;-56
2021/09/25 03:19:26;;;;;;;12.32;3.25;;;;;;;;;;5050203;28;20041;-55
2021/09/25 03:21:52;;;;;;;6.28;3.05;;;;;;;;;;5049743;28;20647;-56
2021/09/25 03:24:18;;;;;;;7.07;3.25;;;;;;;;;;5050342;28;20047;-55
2021/09/25 03:26:44;;;;;;;8.13;2.78;;;;;;;;;;5049784;28;20116;-56
2021/09/25 03:29:10;;;;;;;5.22;1.90;;;;;;;;;;5030483;28;20405;-56
2021/09/25 03:31:36;;;;;;;8.00;1.70;;;;;;;;;;5049279;28;20128;-56
2021/09/25 03:34:02;;;;;;;6.10;1.65;;;;;;;;;;5047351;28;20048;-56
2021/09/25 03:36:28;;;;;;;5.10;2.47;;;;;;;;;;5049230;28;20056;-54
2021/09/25 03:38:54;;;;;;;5.90;2.28;;;;;;;;;;5050411;28;20032;-56
2021/09/25 03:41:20;;;;;;;12.45;2.47;;;;;;;;;;5050594;28;20694;-57
2021/09/25 03:43:50;;;;;;;7.82;2.20;;;;;;;;;;5050219;28;20775;-55
2021/09/25 03:46:19;;;;;;;7.50;2.40;;;;;;;;;;5048687;28;20029;-57
2021/09/25 03:48:45;;;;;;;4.90;1.52;;;;;;;;;;5048487;28;20033;-55
2021/09/25 03:51:11;;;;;;;4.30;1.15;;;;;;;;;;5048277;28;20068;-56
2021/09/25 03:53:36;;;;;;;3.17;1.00;;;;;;;;;;5048813;28;20151;-56
2021/09/25 03:56:08;;;;;;;2.80;0.82;;;;;;;;;;5037548;28;20048;-57
2021/09/25 03:58:34;;;;;;;4.78;0.90;;;;;;;;;;5046618;28;20099;-58
2021/09/25 04:01:00;;;;;;;1.83;0.63;;;;;;;;;;5048070;28;20122;-57
2021/09/25 04:03:26;;;;;;;2.75;0.70;;;;;;;;;;5048377;28;20128;-57
2021/09/25 04:05:52;;;;;;;2.05;0.60;;;;;;;;;;5048608;28;20040;-57
2021/09/25 04:08:18;;;;;;;1.75;0.60;;;;;;;;;;5049646;28;20051;-57
2021/09/25 04:10:43;;;;;;;2.67;0.68;;;;;;;;;;5049366;28;20037;-55
2021/09/25 04:13:09;;;;;;;1.60;0.60;;;;;;;;;;5049386;28;20099;-57
2021/09/25 04:15:35;;;;;;;2.17;0.57;;;;;;;;;;5048007;28;20045;-57
2021/09/25 04:18:01;;;;;;;1.95;0.55;;;;;;;;;;5050192;28;20628;-57
2021/09/25 04:20:27;;;;;;;1.92;0.60;;;;;;;;;;5047887;28;20041;-56
2021/09/25 04:22:52;;;;;;;4.03;0.80;;;;;;;;;;5047161;28;20291;-56
2021/09/25 04:25:19;;;;;;;3.50;0.60;;;;;;;;;;5047462;28;20044;-56
2021/09/25 04:27:49;;;;;;;2.25;0.70;;;;;;;;;;5048066;28;20055;-54
2021/09/25 04:30:15;;;;;;;2.72;0.60;;;;;;;;;;5046952;28;20041;-57
2021/09/25 04:32:41;;;;;;;6.93;0.60;;;;;;;;;;5046841;28;20422;-57
2021/09/25 04:35:07;;;;;;;2.58;0.52;;;;;;;;;;5028765;28;20056;-56
2021/09/25 04:37:33;;;;;;;1.65;0.60;;;;;;;;;;5047187;28;20033;-57
2021/09/25 04:39:58;;;;;;;2.60;0.68;;;;;;;;;;5042767;28;20127;-57
2021/09/25 04:42:24;;;;;;;2.92;0.57;;;;;;;;;;5017854;28;20052;-57
2021/09/25 04:44:50;;;;;;;1.77;0.55;;;;;;;;;;5025989;28;20086;-57
2021/09/25 04:47:16;;;;;;;2.72;0.60;;;;;;;;;;5026643;28;20033;-58
2021/09/25 04:49:42;;;;;;;1.60;0.50;;;;;;;;;;5029322;28;20079;-57
2021/09/25 04:52:07;;;;;;;1.73;0.50;;;;;;;;;;5028013;28;20037;-56
2021/09/25 04:54:33;;;;;;;2.92;0.50;;;;;;;;;;5026300;28;20051;-57
2021/09/25 04:56:59;;;;;;;1.35;0.50;;;;;;;;;;5028519;28;20045;-56
2021/09/25 04:59:25;;;;;;;2.53;0.47;;;;;;;;;;5027254;28;20067;-56
2021/09/25 05:01:51;;;;;;;1.20;0.55;;;;;;;;;;5008113;28;20068;-57
2021/09/25 05:04:17;;;;;;;2.03;0.70;;;;;;;;;;5028090;28;20053;-57
2021/09/25 05:06:44;;;;;;;5.00;0.60;;;;;;;;;;5027089;28;20056;-57
2021/09/25 05:09:09;;;;;;;4.35;0.50;;;;;;;;;;5027233;28;20029;-56
2021/09/25 05:11:35;;;;;;;1.80;0.40;;;;;;;;;;5010448;28;21664;-55
2021/09/25 05:14:01;;;;;;;1.90;0.40;;;;;;;;;;5027465;28;20044;-57
2021/09/25 05:16:27;;;;;;;1.20;0.40;;;;;;;;;;5025059;28;21221;-56
2021/09/25 05:18:53;;;;;;;2.05;0.40;;;;;;;;;;5027667;28;20128;-57
2021/09/25 05:21:21;;;;;;;3.00;0.47;;;;;;;;;;5007471;28;20040;-56
2021/09/25 05:23:47;;;;;;;0.85;0.35;;;;;;;;;;5024888;28;20128;-57
2021/09/25 05:26:13;;;;;;;2.08;0.57;;;;;;;;;;5029090;28;20708;-57
2021/09/25 05:28:39;;;;;;;1.75;0.43;;;;;;;;;;5026526;28;20063;-55
2021/09/25 05:31:06;;;;;;;2.65;0.50;;;;;;;;;;5028273;28;20047;-57
2021/09/25 05:33:31;;;;;;;0.95;0.43;;;;;;;;;;5024221;28;20935;-55
2021/09/25 05:35:57;;;;;;;1.88;0.50;;;;;;;;;;5027116;28;20053;-56
2021/09/25 05:38:23;;;;;;;1.50;0.50;;;;;;;;;;5026077;28;20114;-57
2021/09/25 05:40:49;;;;;;;1.48;0.43;;;;;;;;;;5027509;28;20048;-56
2021/09/25 05:43:15;;;;;;;0.95;0.30;;;;;;;;;;5043014;28;20044;-56
2021/09/25 05:45:40;;;;;;;3.50;0.60;;;;;;;;;;5033271;28;20044;-56
2021/09/25 05:48:06;;;;;;;0.63;0.30;;;;;;;;;;5047054;28;20043;-57
2021/09/25 05:50:32;;;;;;;1.38;0.40;;;;;;;;;;5047238;28;20033;-56
2021/09/25 05:52:58;;;;;;;1.23;0.43;;;;;;;;;;5047356;28;20044;-56
2021/09/25 05:55:24;;;;;;;1.73;0.47;;;;;;;;;;5046633;28;20084;-56
2021/09/25 05:57:49;;;;;;;2.85;0.40;;;;;;;;;;5051499;28;20037;-56
2021/09/25 06:00:15;;;;;;;2.17;0.40;;;;;;;;;;5051592;28;20029;-56
2021/09/25 06:02:42;;;;;;;0.95;0.40;;;;;;;;;;5050164;28;20045;-57
2021/09/25 06:05:09;;;;;;;0.90;0.35;;;;;;;;;;5049888;28;20082;-56
2021/09/25 06:07:35;;;;;;;1.15;0.40;;;;;;;;;;5050577;28;20037;-57
2021/09/25 06:10:01;;;;;;;1.08;0.40;;;;;;;;;;5049806;28;20086;-57
2021/09/25 06:12:26;;;;;;;1.98;0.50;;;;;;;;;;5048789;28;20032;-57
2021/09/25 06:14:53;;;;;;;1.27;0.40;;;;;;;;;;5051313;28;20045;-57
2021/09/25 06:17:22;;;;;;;0.75;0.40;;;;;;;;;;5050196;28;20497;-56
2021/09/25 06:19:48;;;;;;;1.30;0.40;;;;;;;;;;5051496;28;20045;-59
2021/09/25 06:22:13;;;;;;;0.93;0.50;;;;;;;;;;5052042;28;20505;-57
2021/09/25 06:24:39;;;;;;;0.88;0.30;;;;;;;;;;5049486;28;22445;-56
2021/09/25 06:27:05;;;;;;;0.98;0.40;;;;;;;;;;5049984;28;20040;-57
2021/09/25 06:29:31;;;;;;;1.45;0.50;;;;;;;;;;5049504;28;20068;-57
2021/09/25 06:31:57;;;;;;;1.23;0.40;;;;;;;;;;5050192;28;20481;-57
2021/09/25 06:34:23;;;;;;;1.05;0.35;;;;;;;;;;5050172;28;20126;-54
2021/09/25 06:36:49;;;;;;;1.20;0.50;;;;;;;;;;5049393;28;20417;-57
2021/09/25 06:39:15;;;;;;;1.80;0.50;;;;;;;;;;5050428;28;21053;-56
2021/09/25 06:41:41;;;;;;;2.28;0.45;;;;;;;;;;5049383;28;20044;-57
2021/09/25 06:44:07;;;;;;;1.63;0.40;;;;;;;;;;5048631;28;20072;-56
2021/09/25 06:46:33;;;;;;;1.60;0.50;;;;;;;;;;5049367;28;20085;-57
2021/09/25 06:48:59;;;;;;;0.82;0.40;;;;;;;;;;5036430;28;20056;-55
2021/09/25 06:51:25;;;;;;;2.58;0.52;;;;;;;;;;5049721;28;20059;-56
2021/09/25 06:53:51;;;;;;;2.35;0.60;;;;;;;;;;5038566;28;20086;-57
2021/09/25 06:56:16;;;;;;;1.52;0.50;;;;;;;;;;5049859;28;20589;-57
2021/09/25 06:58:42;;;;;;;1.63;0.50;;;;;;;;;;5050319;28;20048;-57
2021/09/25 07:01:08;;;;;;;3.03;0.50;;;;;;;;;;5050752;28;20037;-56
2021/09/25 07:03:34;;;;;;;1.52;0.50;;;;;;;;;;5049010;28;20041;-56
2021/09/25 07:06:00;;;;;;;1.20;0.45;;;;;;;;;;5050049;28;20093;-57
2021/09/25 07:08:25;;;;;;;1.15;0.38;;;;;;;;;;5047857;28;20143;-57
2021/09/25 07:10:51;;;;;;;1.02;0.40;;;;;;;;;;5050732;28;20173;-57
2021/09/25 07:13:18;;;;;;;2.20;0.47;;;;;;;;;;5048008;28;20110;-56
2021/09/25 07:15:43;;;;;;;1.50;0.40;;;;;;;;;;5049273;28;20060;-57
2021/09/25 07:18:10;;;;;;;1.50;0.43;;;;;;;;;;5049586;28;20040;-56
2021/09/25 07:20:36;;;;;;;0.82;0.38;;;;;;;;;;5048973;28;20037;-57
2021/09/25 07:23:01;;;;;;;0.98;0.40;;;;;;;;;;5049189;28;20500;-56
2021/09/25 07:25:28;;;;;;;1.17;0.52;;;;;;;;;;5049389;28;20059;-56
2021/09/25 07:27:55;;;;;;;1.98;0.60;;;;;;;;;;5049890;28;20061;-57
2021/09/25 07:30:21;;;;;;;3.65;0.60;;;;;;;;;;5048905;28;20390;-57
2021/09/25 07:32:47;;;;;;;0.77;0.32;;;;;;;;;;5048229;28;20053;-57
2021/09/25 07:35:15;;;;;;;0.68;0.30;;;;;;;;;;5048734;28;20537;-57
2021/09/25 07:37:41;;;;;;;0.80;0.40;;;;;;;;;;5047876;28;20044;-54
2021/09/25 07:40:07;;;;;;;1.05;0.40;;;;;;;;;;5050053;28;20114;-57
2021/09/25 07:42:33;;;;;;;3.50;0.50;;;;;;;;;;5049309;28;20064;-56
2021/09/25 07:44:59;;;;;;;1.52;0.40;;;;;;;;;;5038522;28;20041;-57
2021/09/25 07:47:25;;;;;;;1.92;0.50;;;;;;;;;;5050838;28;20060;-57
2021/09/25 07:49:51;;;;;;;1.20;0.50;;;;;;;;;;5048813;28;20037;-57
2021/09/25 07:52:17;;;;;;;2.40;0.40;;;;;;;;;;5049654;28;20389;-56
2021/09/25 07:54:43;;;;;;;2.45;0.47;;;;;;;;;;5046805;28;20125;-57
2021/09/25 07:57:09;;;;;;;0.93;0.38;;;;;;;;;;5048185;28;20049;-56
2021/09/25 07:59:35;;;;;;;1.58;0.50;;;;;;;;;;5049640;28;20061;-56
2021/09/25 08:02:00;;;;;;;1.55;0.50;;;;;;;;;;5049483;28;20045;-57
2021/09/25 08:04:26;;;;;;;4.10;0.50;;;;;;;;;;5048721;28;20433;-56
2021/09/25 08:06:52;;;;;;;2.60;0.47;;;;;;;;;;5049510;28;20409;-56
2021/09/25 08:09:20;;;;;;;3.15;0.60;;;;;;;;;;5048409;28;20132;-56
2021/09/25 08:11:47;;;;;;;3.15;0.65;;;;;;;;;;5048431;28;20789;-56
2021/09/25 08:14:12;;;;;;;5.35;0.60;;;;;;;;;;5048111;28;22011;-56
2021/09/25 08:16:38;;;;;;;1.52;0.50;;;;;;;;;;5047531;28;20052;-56
2021/09/25 08:19:04;;;;;;;2.50;0.60;;;;;;;;;;5049722;28;20094;-57
2021/09/25 08:21:30;;;;;;;2.35;0.50;;;;;;;;;;5046872;28;20044;-57
2021/09/25 08:23:56;;;;;;;1.35;0.50;;;;;;;;;;5047874;28;20568;-57
2021/09/25 08:26:21;;;;;;;2.53;0.63;;;;;;;;;;5048158;28;20045;-56
2021/09/25 08:28:47;;;;;;;3.33;0.50;;;;;;;;;;5050531;28;20041;-56
2021/09/25 08:31:13;;;;;;;0.90;0.40;;;;;;;;;;5050700;28;20129;-56
2021/09/25 08:33:39;;;;;;;4.43;0.80;;;;;;;;;;5048141;28;20073;-56
2021/09/25 08:36:05;;;;;;;4.68;0.60;;;;;;;;;;5051742;28;20052;-56
2021/09/25 08:38:31;;;;;;;3.80;0.60;;;;;;;;;;5047274;28;20274;-57
2021/09/25 08:40:59;;;;;;;4.30;0.60;;;;;;;;;;5048485;28;20894;-57
2021/09/25 08:43:25;;;;;;;2.35;0.60;;;;;;;;;;5046216;28;20186;-54
2021/09/25 08:46:01;;;;;;;1.40;0.52;;;;;;;;;;5048248;28;20444;-56
2021/09/25 08:48:27;;;;;;;1.98;0.63;;;;;;;;;;5049132;28;20037;-53
2021/09/25 08:50:54;;;;;;;1.70;0.50;;;;;;;;;;5049178;28;20060;-56
2021/09/25 08:53:19;;;;;;;2.97;0.50;;;;;;;;;;5045186;28;20044;-56
2021/09/25 08:55:45;;;;;;;1.92;0.60;;;;;;;;;;5031886;28;20102;-57
2021/09/25 08:58:11;;;;;;;1.48;0.57;;;;;;;;;;5029953;28;20044;-57
2021/09/25 09:00:55;;;;;;;3.13;0.52;;;;;;;;;;5029707;28;20044;-57
2021/09/25 09:03:24;;;;;;;3.40;0.60;;;;;;;;;;5048366;28;20553;-56
2021/09/25 09:05:54;;;;;;;2.80;0.52;;;;;;;;;;5047853;28;20531;-56
2021/09/25 09:08:22;;;;;;;1.30;0.50;;;;;;;;;;5048679;28;20059;-56
2021/09/25 09:10:48;;;;;;;3.03;0.70;;;;;;;;;;5047303;28;20040;-57
2021/09/25 09:13:16;;;;;;;6.80;0.77;;;;;;;;;;5046834;28;20037;-57
2021/09/25 09:15:42;;;;;;;2.05;0.65;;;;;;;;;;5047138;28;20037;-55
2021/09/25 09:18:14;;;;;;;2.28;0.70;;;;;;;;;;5047844;28;20052;-56
2021/09/25 09:20:40;;;;;;;4.03;0.73;;;;;;;;;;5048448;28;20047;-56
2021/09/25 09:23:13;;;;;;;3.05;0.80;;;;;;;;;;5046194;28;20033;-57
2021/09/25 09:25:39;;;;;;;;;;;;;;;;;;5047460;28;20084;-55
2021/09/25 09:28:10;;;;;;;7.07;0.82;;;;;;;;;;5048214;28;19916;-57
2021/09/25 09:30:35;;;;;;;4.88;0.90;;;;;;;;;;5044097;28;20374;-56
2021/09/25 09:33:01;;;;;;;2.58;0.70;;;;;;;;;;5047040;28;20135;-54
2021/09/25 09:35:30;;;;;;;2.70;0.77;;;;;;;;;;5047073;28;20044;-56
2021/09/25 09:37:56;;;;;;;4.18;1.02;;;;;;;;;;5047680;28;20099;-56
2021/09/25 09:40:23;;;;;;;3.20;0.93;;;;;;;;;;5047500;28;20062;-56
2021/09/25 09:42:49;;;;;;;4.78;0.88;;;;;;;;;;5046321;28;20059;-56
2021/09/25 09:45:25;;;;;;;3.17;1.00;;;;;;;;;;5027434;28;20098;-55
2021/09/25 09:47:51;;;;;;;2.63;0.80;;;;;;;;;;5045897;28;20112;-56
2021/09/25 09:50:19;;;;;;;3.42;0.93;;;;;;;;;;5046543;28;20043;-54
2021/09/25 09:52:45;;;;;;;2.72;0.82;;;;;;;;;;5046531;28;20029;-56
2021/09/25 09:55:20;;;;;;;3.55;1.00;;;;;;;;;;5049032;28;20049;-56
2021/09/25 09:57:58;;;;;;;5.53;1.08;;;;;;;;;;5047774;28;20044;-55
2021/09/25 10:00:24;;;;;;;2.70;0.95;;;;;;;;;;5047811;28;20095;-56
2021/09/25 10:02:50;;;;;;;2.38;0.80;;;;;;;;;;5045588;28;20764;-55
2021/09/25 10:05:16;;;;;;;3.17;1.02;;;;;;;;;;5046054;28;20048;-56
2021/09/25 10:07:43;;;;;;;3.05;0.90;;;;;;;;;;5046819;28;20033;-55
2021/09/25 10:10:09;;;;;;;3.53;0.80;;;;;;;;;;5046924;28;20032;-56
2021/09/25 10:12:35;;;;;;;2.30;0.80;;;;;;;;;;5048440;28;20087;-56
2021/09/25 10:15:01;;;;;;;2.70;0.80;;;;;;;;;;5045502;28;22083;-56
2021/09/25 10:17:27;;;;;;;4.55;0.98;;;;;;;;;;5046751;28;20052;-56
2021/09/25 10:19:53;;;;;;;2.67;0.90;;;;;;;;;;5047405;28;20058;-54
2021/09/25 10:22:26;;;;;;;2.55;0.88;;;;;;;;;;5047798;28;20028;-55
2021/09/25 10:24:51;;;;;;;;;;;;;;;;;;5047977;28;20139;-56
2021/09/25 10:27:17;;;;;;;3.03;0.80;;;;;;;;;;5047728;28;20046;-55
2021/09/25 10:29:52;;;;;;;3.15;0.80;;;;;;;;;;5047068;28;20041;-55
2021/09/25 10:32:20;;;;;;;3.35;1.00;;;;;;;;;;5046831;28;20067;-56
2021/09/25 10:34:53;;;;;;;3.00;0.80;;;;;;;;;;5045024;28;20086;-56
2021/09/25 10:37:20;;;;;;;3.13;0.75;;;;;;;;;;5045761;28;20116;-56
2021/09/25 10:39:55;;;;;;;2.67;0.85;;;;;;;;;;5046078;28;20048;-56
2021/09/25 10:42:21;;;;;;;3.47;0.70;;;;;;;;;;5047240;28;20147;-56
2021/09/25 10:44:52;;;;;;;3.70;0.80;;;;;;;;;;5050750;28;20063;-55
2021/09/25 10:47:20;;;;;;;2.75;0.80;;;;;;;;;;5049130;28;22061;-57
2021/09/25 10:49:48;;;;;;;3.95;0.70;;;;;;;;;;5051393;28;20033;-56
2021/09/25 10:52:16;;;;;;;2.50;0.70;;;;;;;;;;5050792;28;20047;-57
2021/09/25 10:54:42;;;;;;;2.20;0.70;;;;;;;;;;5049026;28;20037;-56
2021/09/25 10:57:18;;;;;;;3.00;0.90;;;;;;;;;;5049221;28;20135;-57
2021/09/25 11:00:02;;;;;;;2.30;0.75;;;;;;;;;;5049259;28;20086;-55
2021/09/25 11:02:41;;;;;;;2.03;0.65;;;;;;;;;;5049533;28;20041;-55
2021/09/25 11:05:06;;;;;;;2.22;0.70;;;;;;;;;;5049945;28;20086;-57
2021/09/25 11:07:41;;;;;;;3.28;0.80;;;;;;;;;;5048760;28;20037;-56
2021/09/25 11:10:07;;;;;;;3.58;0.85;;;;;;;;;;5050201;28;20033;-56
2021/09/25 11:12:42;;;;;;;2.30;0.70;;;;;;;;;;5048536;28;20033;-55
2021/09/25 11:15:28;;;;;;;2.22;0.65;;;;;;;;;;5049558;28;20036;-55
2021/09/25 11:18:14;;;;;;;2.97;0.85;;;;;;;;;;5047690;28;20045;-56
2021/09/25 11:20:39;;;;;;;4.82;1.08;;;;;;;;;;5053335;28;20075;-55
2021/09/25 11:23:05;;;;;;;5.75;0.85;;;;;;;;;;5049869;28;20857;-56
2021/09/25 11:25:32;;;;;;;2.67;0.75;;;;;;;;;;5048855;28;20037;-56
2021/09/25 11:28:01;;;;;;;3.17;0.65;;;;;;;;;;5050713;28;20120;-56
2021/09/25 11:30:28;;;;;;;2.97;0.70;;;;;;;;;;5048770;28;20056;-56
2021/09/25 11:32:57;;;;;;;3.78;0.90;;;;;;;;;;5050820;28;20127;-56
2021/09/25 11:35:23;;;;;;;3.70;1.10;;;;;;;;;;5050322;28;20051;-56
2021/09/25 11:37:50;;;;;;;1.85;0.63;;;;;;;;;;5050980;28;20032;-56
2021/09/25 11:40:17;;;;;;;1.92;0.70;;;;;;;;;;5050108;28;20124;-56
2021/09/25 11:42:42;;;;;;;3.28;0.90;;;;;;;;;;5048941;28;20048;-56
2021/09/25 11:45:10;;;;;;;3.30;0.80;;;;;;;;;;5048467;28;20043;-56
2021/09/25 11:47:37;;;;;;;3.33;0.73;;;;;;;;;;5046327;28;20036;-56
2021/09/25 11:50:12;;;;;;;2.60;0.80;;;;;;;;;;5049525;28;20574;-57
2021/09/25 11:52:38;;;;;;;2.70;0.75;;;;;;;;;;5048725;28;20109;-56
2021/09/25 11:55:05;;;;;;;2.67;0.73;;;;;;;;;;5049668;28;20032;-56
2021/09/25 11:57:31;;;;;;;4.05;0.95;;;;;;;;;;5048355;28;20040;-56
2021/09/25 11:59:57;;;;;;;2.55;0.70;;;;;;;;;;5050091;28;20110;-55
2021/09/25 12:02:36;;;;;;;2.72;0.70;;;;;;;;;;5048625;28;20362;-56
2021/09/25 12:05:02;;;;;;;3.42;0.80;;;;;;;;;;5047666;28;20136;-56
2021/09/25 12:07:44;;;;;;;3.83;0.90;;;;;;;;;;5046784;28;20804;-56
2021/09/25 12:10:30;;;;;;;2.58;0.57;;;;;;;;;;5049089;28;20051;-56
2021/09/25 12:12:56;;;;;;;3.58;0.68;;;;;;;;;;5049426;28;20037;-55
2021/09/25 12:15:32;;;;;;;2.22;0.70;;;;;;;;;;5046811;28;20070;-56
2021/09/25 12:18:04;;;;;;;3.10;0.73;;;;;;;;;;5049894;28;20041;-55
2021/09/25 12:20:31;;;;;;;5.00;0.63;;;;;;;;;;5048700;28;20463;-56
2021/09/25 12:22:58;;;;;;;1.63;0.50;;;;;;;;;;5048825;28;20075;-55
2021/09/25 12:25:24;;;;;;;1.45;0.45;;;;;;;;;;5047997;28;20440;-56
2021/09/25 12:27:50;;;;;;;2.42;0.70;;;;;;;;;;5047915;28;20041;-55
2021/09/25 12:30:17;;;;;;;2.45;0.68;;;;;;;;;;5048394;28;20041;-56
2021/09/25 12:32:43;;;;;;;4.22;0.70;;;;;;;;;;5029202;28;20067;-56
2021/09/25 12:35:18;;;;;;;2.63;0.60;;;;;;;;;;5047848;28;20382;-56
2021/09/25 12:37:51;;;;;;;1.80;0.60;;;;;;;;;;5046551;28;20055;-56
2021/09/25 12:40:17;;;;;;;2.88;0.65;;;;;;;;;;5048274;28;20131;-55
2021/09/25 12:42:43;;;;;;;1.65;0.50;;;;;;;;;;5017152;28;20056;-56
2021/09/25 12:45:11;;;;;;;1.75;0.60;;;;;;;;;;5027733;28;20040;-57
2021/09/25 12:47:37;;;;;;;2.85;0.50;;;;;;;;;;5027807;28;20083;-57
2021/09/25 12:50:24;;;;;;;1.60;0.50;;;;;;;;;;5029179;28;20041;-57
2021/09/25 12:52:56;;;;;;;1.85;0.55;;;;;;;;;;5026900;28;20123;-57
2021/09/25 12:55:23;;;;;;;1.88;0.50;;;;;;;;;;5027470;28;20045;-56
2021/09/25 12:57:56;;;;;;;2.08;0.50;;;;;;;;;;5027538;28;20037;-55
2021/09/25 13:00:26;;;;;;;1.63;0.50;;;;;;;;;;5027617;28;20237;-56
2021/09/25 13:02:53;;;;;;;1.70;0.40;;;;;;;;;;5027986;28;20048;-57
2021/09/25 13:05:22;;;;;;;5.72;0.70;;;;;;;;;;5027498;28;20077;-55
2021/09/25 13:07:48;;;;;;;2.10;0.55;;;;;;;;;;5008897;28;20047;-56
2021/09/25 13:10:15;;;;;;;1.58;0.50;;;;;;;;;;5027878;28;20034;-55
2021/09/25 13:12:45;;;;;;;1.83;0.52;;;;;;;;;;5027542;28;20278;-55
2021/09/25 13:15:13;;;;;;;4.57;0.70;;;;;;;;;;5028876;28;20055;-55
2021/09/25 13:17:40;;;;;;;2.03;0.60;;;;;;;;;;5027101;28;20044;-55
2021/09/25 13:20:07;;;;;;;4.50;0.60;;;;;;;;;;5027514;28;20041;-55
2021/09/25 13:22:33;;;;;;;2.03;0.60;;;;;;;;;;5026841;28;20065;-55
2021/09/25 13:24:59;;;;;;;1.65;0.50;;;;;;;;;;5027540;28;20129;-55
2021/09/25 13:27:30;;;;;;;2.15;0.65;;;;;;;;;;5026051;28;20068;-55
2021/09/25 13:29:56;;;;;;;2.53;0.70;;;;;;;;;;5027781;28;20033;-53
2021/09/25 13:32:22;;;;;;;2.65;0.60;;;;;;;;;;5026743;28;20041;-54
2021/09/25 13:34:48;;;;;;;1.77;0.60;;;;;;;;;;5026513;28;20041;-53
2021/09/25 13:37:14;;;;;;;2.13;0.60;;;;;;;;;;5027110;28;20179;-54
2021/09/25 13:39:39;;;;;;;3.10;0.60;;;;;;;;;;5026186;28;20033;-56
2021/09/25 13:42:05;;;;;;;1.42;0.50;;;;;;;;;;5035161;28;20048;-55
2021/09/25 13:44:31;;;;;;;1.92;0.60;;;;;;;;;;5045601;28;20456;-56
2021/09/25 13:46:57;;;;;;;2.65;0.50;;;;;;;;;;5047267;28;20040;-56
2021/09/25 13:49:23;;;;;;;2.03;0.60;;;;;;;;;;5046285;28;20040;-55
2021/09/25 13:51:49;;;;;;;2.20;0.73;;;;;;;;;;5027178;28;20481;-56
2021/09/25 13:54:15;;;;;;;3.35;0.68;;;;;;;;;;5046097;28;20116;-56
2021/09/25 13:56:41;;;;;;;2.67;0.70;;;;;;;;;;5028561;28;20512;-55
2021/09/25 13:59:07;;;;;;;4.65;0.63;;;;;;;;;;5047154;28;20045;-55
2021/09/25 14:01:34;;;;;;;2.15;0.70;;;;;;;;;;5048272;28;20497;-56
2021/09/25 14:04:01;;;;;;;2.42;0.65;;;;;;;;;;5028164;28;20063;-54
2021/09/25 14:06:27;;;;;;;1.75;0.63;;;;;;;;;;5045621;28;20218;-55
2021/09/25 14:08:52;;;;;;;4.25;0.50;;;;;;;;;;5046453;28;20569;-55
2021/09/25 14:11:18;;;;;;;1.90;0.57;;;;;;;;;;5045641;28;21962;-55
2021/09/25 14:13:44;;;;;;;2.58;0.50;;;;;;;;;;5046319;28;20496;-55
2021/09/25 14:16:10;;;;;;;6.85;0.60;;;;;;;;;;5048166;28;20060;-55
2021/09/25 14:18:48;;;;;;;1.83;0.68;;;;;;;;;;5050813;28;20051;-53
2021/09/25 14:21:15;;;;;;;1.52;0.50;;;;;;;;;;5051348;28;20041;-56
2021/09/25 14:23:41;;;;;;;4.30;0.63;;;;;;;;;;5048364;28;20040;-57
2021/09/25 14:26:07;;;;;;;2.40;0.63;;;;;;;;;;5040648;28;20163;-55
2021/09/25 14:28:34;;;;;;;3.22;0.50;;;;;;;;;;5049084;28;20036;-55
2021/09/25 14:31:00;;;;;;;3.30;0.70;;;;;;;;;;5050389;28;20497;-55
2021/09/25 14:33:27;;;;;;;2.33;0.52;;;;;;;;;;5047955;28;20044;-55
2021/09/25 14:35:53;;;;;;;1.80;0.70;;;;;;;;;;5050643;28;20060;-54
2021/09/25 14:38:19;;;;;;;2.17;0.50;;;;;;;;;;5049927;28;20393;-55
2021/09/25 14:40:45;;;;;;;2.65;0.80;;;;;;;;;;5033209;28;20068;-56
2021/09/25 14:43:11;;;;;;;2.30;0.70;;;;;;;;;;5050097;28;20128;-55